Date,TemperatureHighF,TemperatureAvgF,TemperatureLowF,DewpointHighF,DewpointAvgF,DewpointLowF,HumidityHigh,HumidityAvg,HumidityLow,PressureMaxIn,PressureMinIn,WindSpeedMaxMPH,WindSpeedAvgMPH,GustSpeedMaxMPH,PrecipitationSumIn
2013-2-1,34.5,30.1,23.9,18.9,10.9,6.3,58,45,34,30.07,29.57,7,4,20,0.01
2013-2-2,30.9,25.8,19.4,14.1,8.9,4.8,57,49,39,30.24,30.04,5,3,13,0.00
2013-2-3,27.7,26.0,23.5,23.9,21.3,13.9,89,83,56,30.04,29.72,4,2,10,0.00
2013-2-4,30.5,25.9,21.9,22.7,13.4,7.2,89,60,40,29.93,29.71,7,3,19,0.00
2013-2-5,29.9,26.2,22.2,25.0,15.0,10.1,91,63,49,30.02,29.92,4,1,11,0.00
2013-2-6,40.0,31.5,26.4,27.8,21.2,8.2,92,68,42,30.28,29.92,6,2,16,0.07
2013-2-7,30.6,26.1,19.7,20.2,5.6,1.1,69,42,31,30.52,30.28,6,2,16,0.00
2013-2-8,33.7,30.4,18.9,32.2,26.7,17.5,97,87,67,30.48,29.58,7,2,17,0.00
2013-2-9,21.9,19.0,14.7,20.7,17.0,10.5,95,91,83,30.17,29.55,9,2,19,0.00
2013-2-10,40.2,24.6,12.2,21.1,12.8,7.1,83,64,25,30.39,30.18,6,1,15,0.31
2013-2-11,44.7,33.1,21.6,43.9,29.6,14.3,98,87,63,30.34,29.59,4,0,9,0.30
2013-2-12,45.1,39.6,34.6,38.3,31.0,27.5,99,72,55,29.86,29.59,6,2,22,0.00
2013-2-13,43.0,36.2,29.1,29.8,26.9,23.8,83,69,53,29.85,29.67,4,1,11,0.00
2013-2-14,45.4,37.5,31.4,29.8,25.2,18.5,83,63,34,29.98,29.68,4,1,12,0.00
2013-2-15,52.4,40.3,31.0,37.2,32.8,25.4,94,76,52,29.99,29.88,6,2,18,0.00
2013-2-16,39.4,35.7,31.6,33.6,29.0,20.2,94,77,57,29.93,29.70,5,2,12,0.02
2013-2-17,31.5,23.2,18.5,22.0,13.7,4.1,91,68,48,29.69,29.37,11,6,27,0.00
2013-2-18,32.6,24.1,15.8,6.7,4.3,1.8,57,43,27,30.14,29.66,9,5,27,0.00
2013-2-19,47.7,37.8,24.7,43.5,26.1,5.6,97,64,43,30.16,29.56,5,2,13,0.36
2013-2-20,42.9,33.7,27.7,42.1,22.1,9.7,97,64,38,29.77,29.51,7,3,22,0.05
2013-2-21,34.6,28.9,25.6,17.8,15.6,12.6,69,58,46,30.16,29.77,10,5,22,0.00
2013-2-22,39.7,32.9,25.6,27.4,22.9,17.7,79,67,49,30.38,30.17,5,2,14,0.00
2013-2-23,39.4,35.9,32.1,33.9,30.6,25.7,96,81,73,30.33,29.91,5,2,10,0.11
2013-2-24,38.4,35.1,31.9,37.6,34.1,30.9,97,96,95,29.91,29.67,7,2,17,0.52
2013-2-25,41.1,36.1,31.1,34.0,31.5,29.1,96,84,67,30.23,29.88,3,1,7,0.18
2013-2-26,43.7,37.5,30.1,35.6,31.4,27.7,96,80,56,30.32,30.15,5,2,13,0.00
2013-2-27,42.1,40.5,39.2,40.8,38.9,33.2,97,94,79,30.15,29.54,10,5,25,1.50
2013-2-28,48.0,39.7,35.2,39.5,36.4,33.7,97,88,71,29.63,29.51,3,1,8,0.00